Avno, Denmark

12:34 AM CEST on April 02, 2015 (GMT +0200)
Kostraede Banker | | Change Station
CLOSE
Current Station
Personal Weather Station
Location: Lundby,
Elevation: 39 ft
Nearby Weather Stations

Elev 39 ft 55.12 °N, 11.81 °E | Updated 55 seconds ago

Mostly Cloudy
Mostly Cloudy
37.7 °F
Feels Like 32 °F
N
7.0
Wind Variable Wind from West
Gusts 12.0 mph

Today
High -- | Low -- °F
--% Chance of Precip.
Yesterday
High -- | Low -- °F
Precip. -- in
6:43 AM 7:51 PM
Waxing Gibbous, 94% visible
Pressure 29.59 in
Visibility 6.2 miles
Clouds Few 3000 ft
Mostly Cloudy 3500 ft
Windchill 32 °F
Dew Point 34 °F
Humidity 88%
Rainfall 0.00 in
Snow Depth Not available.
UV 0 out of 12
Pollen Not available.
Air Quality Not available.
Flu Activity Not available.
METAR EKRK 012220Z AUTO 26011KT 9999NDV FEW030/// BKN035/// 03/M00 Q1002

More Conditions Fewer Conditions

Pressure 29.59 in
Visibility 6.2 miles
Clouds Few 3000 ft
Mostly Cloudy 3500 ft
Windchill 32 °F
Dew Point 34 °F
Humidity 88%
Rainfall 0.00 in
Snow Depth Not available.
UV 0 out of 12
Pollen Not available.
Air Quality Not available.
Flu Activity Not available.
METAR EKRK 012220Z AUTO 26011KT 9999NDV FEW030/// BKN035/// 03/M00 Q1002

More Conditions Fewer Conditions

10-Day Weather Forecast

Almanac

Astronomy

Apr. 02, 2015 Rise Set
Actual Time
Civil Twilight
Nautical Twilight
Astronomical Twilight
Moon
Length of Visible Light
Length of Day
Tomorrow will be .
, % of the Moon is Illuminated

Today's Extremes

Country Highs Country Lows

Community

WunderPhotos

Upload Photos

1,810,096 photos uploaded!

WunderBlogs® & News

Nearby

Air Quality

  Air Quality AQ Index Pollutant
Not available.

Snow Depth

Station Depth Elevation

Earthquake Activity

City Distance Mag. Time & Date
Minimum magnitude displayed is 2.5.

Coastal Water Temperatures

Place Temperature

Stations

Nearby Weather Stations

Station Location Temp. Windchill Dew Point Humidity Wind Precip. Elev Updated Type